Decoded Metar for PANC (ANCHORAGE in AK, USA) (IATA:ANC) | Meteo·Mobile Aviation Weather
aviador You're here:

PANC Decoded Metar

ANCHORAGE in AK, USA
Report Time2019-09-23 07:53:00
UTC Time2019-09-23 08:53:50
Flight Rules vfr VFR
WindCalm
Visibility9999 m
Phenomena:N/A
Clouds:Few 070 Hf
Few 150 Hf
Expected CloudBase > 1,200 ft AGL from Temp-Dew spread
CeilingNone
Temp07°C (ISA -8)
Dew Point04°C (81% RH)
AAT5.7°C
QNH997 hPa
Density Alt-148 ft
Elevation125 ft
Report Wrong Elevation
Raw Report
PANC 230753Z 00000KT 10SM FEW070 FEW150 07/04 A2945=

Extra information for PANC:More info

Metar Taf Metar & Taf Last 4 Metars F.Rules Stats Wind Profile Meteogram Temp Stats Airport Information Weather charts Add Link Nearby VenuesMetar ALERT Operation Metar Decoded Social comments

AIRNAV info for PANC
Anchorage Webcam N